createdAt,value
2019-01-30T00:01:59.756Z,25.60
2019-01-30T00:04:32.775Z,25.40
2019-01-30T00:07:06.123Z,25.40
2019-01-30T00:09:37.131Z,25.60
2019-01-30T00:12:09.877Z,25.50
2019-01-30T00:14:40.571Z,25.30
2019-01-30T00:17:10.960Z,25.10
2019-01-30T00:19:42.757Z,24.80
2019-01-30T00:22:13.292Z,24.60
2019-01-30T00:24:43.615Z,24.80
2019-01-30T00:27:15.554Z,24.70
2019-01-30T00:29:45.989Z,24.50
2019-01-30T00:32:16.527Z,24.30
2019-01-30T00:34:47.106Z,24.20
2019-01-30T00:37:17.543Z,24.00
2019-01-30T00:39:48.050Z,23.80
2019-01-30T00:42:18.611Z,23.80
2019-01-30T00:44:49.092Z,23.90
2019-01-30T00:47:19.738Z,23.80
2019-01-30T00:49:50.132Z,23.90
2019-01-30T00:52:20.701Z,23.80
2019-01-30T00:54:51.265Z,23.60
2019-01-30T00:57:21.909Z,23.70
2019-01-30T00:59:52.284Z,23.80
2019-01-30T01:02:22.817Z,23.60
2019-01-30T01:04:53.390Z,23.60
2019-01-30T01:07:24.101Z,23.60
2019-01-30T01:09:54.904Z,23.30
2019-01-30T01:12:26.595Z,23.30
2019-01-30T01:14:57.156Z,23.40
2019-01-30T01:17:27.736Z,23.30
2019-01-30T01:19:58.116Z,23.10
2019-01-30T01:22:28.643Z,22.80
2019-01-30T01:24:59.149Z,22.50
2019-01-30T01:27:29.461Z,22.70
2019-01-30T01:30:00.035Z,22.70
2019-01-30T01:32:30.576Z,22.90
2019-01-30T01:35:00.909Z,23.10
2019-01-30T01:37:31.699Z,22.90
2019-01-30T01:40:04.726Z,22.90
2019-01-30T01:42:35.230Z,22.90
2019-01-30T01:45:07.376Z,23.00
2019-01-30T01:47:42.987Z,23.10
2019-01-30T01:50:16.347Z,22.90
2019-01-30T01:52:47.015Z,22.90
2019-01-30T01:55:17.697Z,22.60
2019-01-30T01:57:52.549Z,22.40
2019-01-30T02:00:35.595Z,22.10
2019-01-30T02:03:02.801Z,22.30
2019-01-30T02:05:33.333Z,22.20
2019-01-30T02:08:03.718Z,22.30
2019-01-30T02:10:35.760Z,22.10
2019-01-30T02:13:07.023Z,22.20
2019-01-30T02:15:37.422Z,22.30
2019-01-30T02:18:08.512Z,22.30
2019-01-30T02:20:40.408Z,22.00
2019-01-30T02:23:11.776Z,22.10
2019-01-30T02:25:42.191Z,21.80
2019-01-30T02:28:12.581Z,21.70
2019-01-30T02:30:47.592Z,21.80
2019-01-30T02:33:14.842Z,21.40
2019-01-30T02:35:45.315Z,21.40
2019-01-30T02:38:15.669Z,21.70
2019-01-30T02:40:46.482Z,21.90
2019-01-30T02:43:16.859Z,21.70
2019-01-30T02:45:47.185Z,21.60
2019-01-30T02:48:17.587Z,21.50
2019-01-30T02:50:47.923Z,21.60
2019-01-30T02:53:22.109Z,21.70
2019-01-30T02:55:52.857Z,21.70
2019-01-30T02:58:23.181Z,21.50
2019-01-30T03:00:59.447Z,21.50
2019-01-30T03:03:25.416Z,21.60
2019-01-30T03:05:55.722Z,21.70
2019-01-30T03:08:26.108Z,21.70
2019-01-30T03:10:56.642Z,21.60
2019-01-30T03:13:27.237Z,21.80
2019-01-30T03:15:57.625Z,21.90
2019-01-30T03:18:28.014Z,22.00
2019-01-30T03:20:58.381Z,22.00
2019-01-30T03:23:28.776Z,22.00
2019-01-30T03:25:59.102Z,21.90
2019-01-30T03:28:29.445Z,22.00
2019-01-30T03:31:15.901Z,22.10
2019-01-30T03:33:31.655Z,22.00
2019-01-30T03:36:02.027Z,22.10
2019-01-30T03:38:32.463Z,22.00
2019-01-30T03:41:02.839Z,22.10
2019-01-30T03:43:33.175Z,22.10
2019-01-30T03:46:03.632Z,22.00
2019-01-30T03:48:33.985Z,22.00
2019-01-30T03:51:04.361Z,21.90
2019-01-30T03:53:34.755Z,21.90
2019-01-30T03:56:05.253Z,21.90
2019-01-30T03:58:35.578Z,21.90
2019-01-30T04:01:06.274Z,21.90
2019-01-30T04:03:36.613Z,21.90
2019-01-30T04:06:06.992Z,21.70
2019-01-30T04:08:37.378Z,21.70
2019-01-30T04:11:07.726Z,21.70
2019-01-30T04:13:38.088Z,21.80
2019-01-30T04:16:08.700Z,21.80
2019-01-30T04:18:38.993Z,21.70
2019-01-30T04:21:09.382Z,21.60
2019-01-30T04:23:39.769Z,21.60
2019-01-30T04:26:10.183Z,21.50
2019-01-30T04:28:40.492Z,21.40
2019-01-30T04:31:11.008Z,21.50
2019-01-30T04:33:41.325Z,21.50
2019-01-30T04:36:11.679Z,21.40
2019-01-30T04:38:42.073Z,21.40
2019-01-30T04:41:12.431Z,21.40
2019-01-30T04:43:42.787Z,21.30
2019-01-30T04:46:13.407Z,21.30
2019-01-30T04:48:43.767Z,21.30
2019-01-30T04:51:14.185Z,21.30
2019-01-30T04:53:44.613Z,21.30
2019-01-30T04:56:14.966Z,21.30
2019-01-30T04:58:45.327Z,21.20
2019-01-30T05:01:15.811Z,21.20
2019-01-30T05:03:46.154Z,21.10
2019-01-30T05:06:16.458Z,21.00
2019-01-30T05:08:47.267Z,21.10
2019-01-30T05:11:17.647Z,21.00
2019-01-30T05:13:48.448Z,21.00
2019-01-30T05:16:18.958Z,21.00
2019-01-30T05:18:49.367Z,21.00
2019-01-30T05:21:19.730Z,20.90
2019-01-30T05:23:50.141Z,20.90
2019-01-30T05:26:20.474Z,20.90
2019-01-30T05:28:50.829Z,20.90
2019-01-30T05:31:22.032Z,20.80
2019-01-30T05:33:52.525Z,20.80
2019-01-30T05:36:22.856Z,20.70
2019-01-30T05:38:53.250Z,20.70
2019-01-30T05:41:23.589Z,20.70
2019-01-30T05:43:53.896Z,20.60
2019-01-30T05:46:24.359Z,20.60
2019-01-30T05:48:54.679Z,20.60
2019-01-30T05:51:25.062Z,20.60
2019-01-30T05:53:55.496Z,20.60
2019-01-30T05:56:25.950Z,20.70
2019-01-30T05:58:56.262Z,20.60
2019-01-30T06:01:26.683Z,20.60
2019-01-30T06:03:57.044Z,20.40
2019-01-30T06:06:27.318Z,20.40
2019-01-30T06:08:59.312Z,20.40
2019-01-30T06:11:29.802Z,20.40
2019-01-30T06:14:00.145Z,20.30
2019-01-30T06:16:30.776Z,20.30
2019-01-30T06:19:01.160Z,20.30
2019-01-30T06:21:31.462Z,20.10
2019-01-30T06:24:01.901Z,20.20
2019-01-30T06:26:32.239Z,20.10
2019-01-30T06:29:02.546Z,20.00
2019-01-30T06:31:33.014Z,20.00
2019-01-30T06:34:03.348Z,20.00
2019-01-30T06:36:33.693Z,19.90
2019-01-30T06:39:05.987Z,19.80
2019-01-30T06:41:36.319Z,19.90
2019-01-30T06:44:06.634Z,19.90
2019-01-30T06:46:37.105Z,19.90
2019-01-30T06:49:07.450Z,19.90
2019-01-30T06:51:37.841Z,19.90
2019-01-30T06:54:08.228Z,19.80
2019-01-30T06:56:38.534Z,19.80
2019-01-30T06:59:08.888Z,19.80
2019-01-30T07:01:39.361Z,19.70
2019-01-30T07:04:09.683Z,19.70
2019-01-30T07:06:40.000Z,19.70
2019-01-30T07:09:12.026Z,19.70
2019-01-30T07:11:42.447Z,19.60
2019-01-30T07:14:12.768Z,19.70
2019-01-30T07:16:43.243Z,19.70
2019-01-30T07:19:13.685Z,19.70
2019-01-30T07:21:44.156Z,19.70
2019-01-30T07:24:14.575Z,19.70
2019-01-30T07:26:44.926Z,19.70
2019-01-30T07:29:15.238Z,19.70
2019-01-30T07:31:45.687Z,19.70
2019-01-30T07:34:16.057Z,19.70
2019-01-30T07:36:46.478Z,19.60
2019-01-30T07:39:16.792Z,19.60
2019-01-30T07:41:47.096Z,19.50
2019-01-30T07:44:17.488Z,19.60
2019-01-30T07:46:47.783Z,19.50
2019-01-30T07:49:18.167Z,19.50
2019-01-30T07:51:48.723Z,19.30
2019-01-30T07:54:19.054Z,19.20
2019-01-30T07:56:49.418Z,19.30
2019-01-30T07:59:25.335Z,19.40
2019-01-30T08:01:55.709Z,19.30
2019-01-30T08:04:26.077Z,19.50
2019-01-30T08:06:56.509Z,19.50
2019-01-30T08:09:26.807Z,19.40
2019-01-30T08:11:57.187Z,19.20
2019-01-30T08:14:27.638Z,19.20
2019-01-30T08:16:57.947Z,19.10
2019-01-30T08:19:28.287Z,19.10
2019-01-30T08:21:58.801Z,18.70
2019-01-30T08:24:29.465Z,18.50
2019-01-30T08:27:00.181Z,18.70
2019-01-30T08:29:30.789Z,18.60
2019-01-30T08:32:01.247Z,18.90
2019-01-30T08:34:31.627Z,18.70
2019-01-30T08:37:02.126Z,18.80
2019-01-30T08:39:32.452Z,18.70
2019-01-30T08:42:02.755Z,18.70
2019-01-30T08:44:33.190Z,18.30
2019-01-30T08:47:03.526Z,18.00
2019-01-30T08:49:33.864Z,18.10
2019-01-30T08:52:04.300Z,18.20
2019-01-30T08:54:34.607Z,18.40
2019-01-30T08:57:04.923Z,18.60
2019-01-30T08:59:35.341Z,18.70
2019-01-30T09:02:06.176Z,18.90
2019-01-30T09:04:36.509Z,19.00
2019-01-30T09:07:06.932Z,18.60
2019-01-30T09:09:37.263Z,18.60
2019-01-30T09:12:07.672Z,18.60
2019-01-30T09:14:38.042Z,18.40
2019-01-30T09:17:08.756Z,17.80
2019-01-30T09:19:39.256Z,17.80
2019-01-30T09:22:09.675Z,18.10
2019-01-30T09:24:40.576Z,18.10
2019-01-30T09:27:10.922Z,17.80
2019-01-30T09:29:41.290Z,17.60
2019-01-30T09:32:11.629Z,17.60
2019-01-30T09:34:41.989Z,17.60
2019-01-30T09:37:12.475Z,17.50
2019-01-30T09:39:42.804Z,17.50
2019-01-30T09:42:13.131Z,17.40
2019-01-30T09:44:43.483Z,17.40
2019-01-30T09:47:13.840Z,17.40
2019-01-30T09:49:44.130Z,17.20
2019-01-30T09:52:14.610Z,17.60
2019-01-30T09:54:45.008Z,17.50
2019-01-30T09:57:15.366Z,17.60
2019-01-30T09:59:45.759Z,17.90
2019-01-30T10:02:16.104Z,18.10
2019-01-30T10:04:46.400Z,18.10
2019-01-30T10:07:16.844Z,18.10
2019-01-30T10:09:47.154Z,18.30
2019-01-30T10:12:17.576Z,18.40
2019-01-30T10:14:47.955Z,18.50
2019-01-30T10:17:18.288Z,18.50
2019-01-30T10:19:48.626Z,18.50
2019-01-30T10:22:19.014Z,18.50
2019-01-30T10:24:50.555Z,18.40
2019-01-30T10:27:21.600Z,18.40
2019-01-30T10:29:51.944Z,18.30
2019-01-30T10:32:22.232Z,18.10
2019-01-30T10:34:52.618Z,18.00
2019-01-30T10:37:23.000Z,18.00
2019-01-30T10:39:53.357Z,18.20
2019-01-30T10:42:23.828Z,18.30
2019-01-30T10:44:54.192Z,18.10
2019-01-30T10:47:24.523Z,17.90
2019-01-30T10:49:54.958Z,17.80
2019-01-30T10:52:25.328Z,18.10
2019-01-30T10:54:55.669Z,18.30
2019-01-30T10:57:26.181Z,18.40
2019-01-30T10:59:56.480Z,18.30
2019-01-30T11:02:26.860Z,18.40
2019-01-30T11:04:57.258Z,18.40
2019-01-30T11:07:27.554Z,18.40
2019-01-30T11:09:58.435Z,18.40
2019-01-30T11:12:28.936Z,18.40
2019-01-30T11:14:59.235Z,18.30
2019-01-30T11:17:29.632Z,18.30
2019-01-30T11:20:02.675Z,18.20
2019-01-30T11:22:33.065Z,18.10
2019-01-30T11:25:05.611Z,17.90
2019-01-30T11:27:35.442Z,18.00
2019-01-30T11:30:08.512Z,18.10
2019-01-30T11:32:38.891Z,18.20
2019-01-30T11:35:10.157Z,18.30
2019-01-30T11:37:40.593Z,18.10
2019-01-30T11:40:22.184Z,18.10
2019-01-30T11:42:53.711Z,17.90
2019-01-30T11:45:26.672Z,17.80
2019-01-30T11:47:57.195Z,17.60
2019-01-30T11:50:27.785Z,17.60
2019-01-30T11:52:58.529Z,17.50
2019-01-30T11:55:29.038Z,17.60
2019-01-30T11:57:59.390Z,17.60
2019-01-30T12:00:35.955Z,17.40
2019-01-30T12:03:06.404Z,16.80
2019-01-30T12:05:36.782Z,16.60
2019-01-30T12:08:07.789Z,16.80
2019-01-30T12:10:38.156Z,17.00
2019-01-30T12:13:08.730Z,17.00
2019-01-30T12:15:39.184Z,17.00
2019-01-30T12:18:09.525Z,16.80
2019-01-30T12:20:44.630Z,16.50
2019-01-30T12:23:14.954Z,16.70
2019-01-30T12:25:45.485Z,16.80
2019-01-30T12:28:16.058Z,16.80
2019-01-30T12:30:46.431Z,16.60
2019-01-30T12:33:16.846Z,16.60
2019-01-30T12:35:47.190Z,16.80
2019-01-30T12:38:17.622Z,16.70
2019-01-30T12:40:48.070Z,16.70
2019-01-30T12:43:19.514Z,16.70
2019-01-30T12:45:51.346Z,16.80
2019-01-30T12:48:21.762Z,16.70
2019-01-30T12:50:52.354Z,16.70
2019-01-30T12:53:22.841Z,16.70
2019-01-30T12:55:53.213Z,16.70
2019-01-30T12:58:23.570Z,16.80
2019-01-30T13:00:54.077Z,16.80
2019-01-30T13:03:24.383Z,16.90
2019-01-30T13:05:55.653Z,17.00
2019-01-30T13:08:26.030Z,17.20
2019-01-30T13:10:56.380Z,17.30
2019-01-30T13:13:26.789Z,17.60
2019-01-30T13:15:57.263Z,17.70
2019-01-30T13:18:27.976Z,17.90
2019-01-30T13:21:03.023Z,17.90
2019-01-30T13:23:33.413Z,18.20
2019-01-30T13:26:03.767Z,18.60
2019-01-30T13:28:34.361Z,19.00
2019-01-30T13:31:04.733Z,19.50
2019-01-30T13:33:35.261Z,19.80
2019-01-30T13:36:07.352Z,20.20
2019-01-30T13:38:37.667Z,20.50
2019-01-30T13:41:08.246Z,20.70
2019-01-30T13:43:38.670Z,20.90
2019-01-30T13:46:09.142Z,21.20
2019-01-30T13:48:39.583Z,21.40
2019-01-30T13:51:11.308Z,21.90
2019-01-30T13:53:42.160Z,22.10
2019-01-30T13:56:12.721Z,21.30
2019-01-30T13:58:43.303Z,21.80
2019-01-30T14:01:17.545Z,21.50
2019-01-30T14:03:45.683Z,21.30
2019-01-30T14:06:16.231Z,21.30
2019-01-30T14:08:46.765Z,21.30
2019-01-30T14:11:17.189Z,21.60
2019-01-30T14:13:47.560Z,21.00
2019-01-30T14:16:17.908Z,20.90
2019-01-30T14:18:48.436Z,20.50
2019-01-30T14:21:18.930Z,20.60
2019-01-30T14:23:53.972Z,20.80
2019-01-30T14:26:27.268Z,20.80
2019-01-30T14:28:58.369Z,21.00
2019-01-30T14:31:29.924Z,21.10
2019-01-30T14:34:05.364Z,21.70
2019-01-30T14:36:35.720Z,21.80
2019-01-30T14:39:08.798Z,21.90
2019-01-30T14:41:40.648Z,22.20
2019-01-30T14:44:11.630Z,22.10
2019-01-30T14:46:42.130Z,22.10
2019-01-30T14:49:12.493Z,22.00
2019-01-30T14:51:46.347Z,21.80
2019-01-30T14:54:16.673Z,21.90
2019-01-30T14:56:53.588Z,22.00
2019-01-30T14:59:24.100Z,21.90
2019-01-30T15:01:56.041Z,21.50
2019-01-30T15:04:29.623Z,21.60
2019-01-30T15:07:00.349Z,21.70
2019-01-30T15:09:30.828Z,21.20
2019-01-30T15:12:01.371Z,21.20
2019-01-30T15:14:31.815Z,21.90
2019-01-30T15:17:05.342Z,22.40
2019-01-30T15:19:35.931Z,22.40
2019-01-30T15:22:06.543Z,21.90
2019-01-30T15:24:38.356Z,21.90
2019-01-30T15:27:08.838Z,21.60
2019-01-30T15:29:39.388Z,21.60
2019-01-30T15:32:10.149Z,21.50
2019-01-30T15:34:40.571Z,21.20
2019-01-30T15:37:10.941Z,21.30
2019-01-30T15:39:41.437Z,21.40
2019-01-30T15:42:11.829Z,21.70
2019-01-30T15:44:42.310Z,21.80
2019-01-30T15:47:12.970Z,21.10
2019-01-30T15:49:43.371Z,21.50
2019-01-30T15:52:13.778Z,21.80
2019-01-30T15:54:44.502Z,21.50
2019-01-30T15:57:14.965Z,21.60
2019-01-30T15:59:45.587Z,21.80
2019-01-30T16:02:16.184Z,21.90
2019-01-30T16:04:46.600Z,22.10
2019-01-30T16:07:16.983Z,22.20
2019-01-30T16:09:47.680Z,22.30
2019-01-30T16:12:18.202Z,22.20
2019-01-30T16:14:48.565Z,21.90
2019-01-30T16:17:18.993Z,22.70
2019-01-30T16:19:49.529Z,22.90
2019-01-30T16:22:19.977Z,23.10
2019-01-30T16:24:50.411Z,23.10
2019-01-30T16:27:43.695Z,23.50
2019-01-30T16:30:19.517Z,23.80
2019-01-30T16:32:50.045Z,23.60
2019-01-30T16:35:23.695Z,23.60
2019-01-30T16:37:54.088Z,23.40
2019-01-30T16:40:25.949Z,23.80
2019-01-30T16:42:56.535Z,24.50
2019-01-30T16:45:32.238Z,25.10
2019-01-30T16:48:02.733Z,25.60
2019-01-30T16:50:34.437Z,26.00
2019-01-30T16:53:09.450Z,25.60
2019-01-30T16:55:40.350Z,26.50
2019-01-30T16:58:11.061Z,26.60
2019-01-30T17:00:41.743Z,27.00
2019-01-30T17:03:13.086Z,27.40
2019-01-30T17:05:43.592Z,27.80
2019-01-30T17:08:14.168Z,27.80
2019-01-30T17:11:13.659Z,27.40
2019-01-30T17:13:44.023Z,27.20
2019-01-30T17:16:14.686Z,27.40
2019-01-30T17:18:45.315Z,26.90
2019-01-30T17:21:15.706Z,27.40
2019-01-30T17:23:48.513Z,27.90
2019-01-30T17:26:21.177Z,28.20
2019-01-30T17:28:51.706Z,28.60
2019-01-30T17:31:22.493Z,29.30
2019-01-30T17:33:53.040Z,29.40
2019-01-30T17:36:26.363Z,29.00
2019-01-30T17:38:56.925Z,28.10
2019-01-30T17:41:27.481Z,28.10
2019-01-30T17:43:58.016Z,28.40
2019-01-30T17:46:28.449Z,29.30
2019-01-30T17:48:58.868Z,29.60
2019-01-30T17:51:29.246Z,29.40
2019-01-30T17:53:59.818Z,28.20
2019-01-30T17:56:30.347Z,27.90
2019-01-30T17:59:03.909Z,28.40
2019-01-30T18:01:34.865Z,28.50
2019-01-30T18:04:05.866Z,29.30
2019-01-30T18:06:37.657Z,28.90
2019-01-30T18:09:09.405Z,29.30
2019-01-30T18:11:42.795Z,29.40
2019-01-30T18:14:13.173Z,29.00
2019-01-30T18:16:43.799Z,29.80
2019-01-30T18:19:18.456Z,29.10
2019-01-30T18:21:48.888Z,29.10
2019-01-30T18:24:19.262Z,29.90
2019-01-30T18:26:53.323Z,29.50
2019-01-30T18:29:28.258Z,29.10
2019-01-30T18:32:07.490Z,29.70
2019-01-30T18:34:37.779Z,29.60
2019-01-30T18:37:12.557Z,29.40
2019-01-30T18:39:43.103Z,29.40
2019-01-30T18:42:13.708Z,29.20
2019-01-30T18:44:44.410Z,29.90
2019-01-30T18:47:14.909Z,29.90
2019-01-30T18:49:47.151Z,28.80
2019-01-30T18:52:20.849Z,29.40
2019-01-30T18:54:51.864Z,29.70
2019-01-30T18:57:25.776Z,30.00
2019-01-30T18:59:59.152Z,30.40
2019-01-30T19:02:29.654Z,30.40
2019-01-30T19:05:09.098Z,30.30
2019-01-30T19:07:39.207Z,29.10
2019-01-30T19:10:12.164Z,28.50
2019-01-30T19:12:42.801Z,29.10
2019-01-30T19:15:16.043Z,29.20
2019-01-30T19:17:46.782Z,29.00
2019-01-30T19:20:28.902Z,29.20
2019-01-30T19:23:01.825Z,29.40
2019-01-30T19:25:35.347Z,30.00
2019-01-30T19:28:07.314Z,30.00
2019-01-30T19:30:38.036Z,30.70
2019-01-30T19:33:14.708Z,31.20
2019-01-30T19:35:48.162Z,30.80
2019-01-30T19:38:18.521Z,29.30
2019-01-30T19:40:50.078Z,29.20
2019-01-30T19:43:26.110Z,29.70
2019-01-30T19:45:56.695Z,30.20
2019-01-30T19:51:26.369Z,29.50
2019-01-30T19:54:00.158Z,30.00
2019-01-30T19:56:33.168Z,29.90
2019-01-30T19:59:03.814Z,30.40
2019-01-30T20:01:38.328Z,30.70
2019-01-30T20:04:10.790Z,29.30
2019-01-30T20:06:41.264Z,29.10
2019-01-30T20:09:19.504Z,28.90
2019-01-30T20:11:48.933Z,28.60
2019-01-30T20:14:20.805Z,29.00
2019-01-30T20:17:01.186Z,29.50
2019-01-30T20:19:44.404Z,29.40
2019-01-30T20:22:15.833Z,29.40
2019-01-30T20:24:46.960Z,29.10
2019-01-30T20:27:19.399Z,28.40
2019-01-30T20:29:49.766Z,29.10
2019-01-30T20:32:20.267Z,28.80
2019-01-30T20:34:50.805Z,29.30
2019-01-30T20:37:26.252Z,29.60
2019-01-30T20:39:55.008Z,29.80
2019-01-30T20:42:27.365Z,29.70
2019-01-30T20:45:00.594Z,30.10
2019-01-30T20:47:34.255Z,30.50
2019-01-30T20:50:06.387Z,29.60
2019-01-30T20:52:48.405Z,28.80
2019-01-30T20:55:22.795Z,28.10
2019-01-30T20:57:53.355Z,27.70
2019-01-30T21:00:37.803Z,28.10
2019-01-30T21:03:10.387Z,28.30
2019-01-30T21:05:41.148Z,28.30
2019-01-30T21:08:18.718Z,28.90
2019-01-30T21:10:49.376Z,29.00
2019-01-30T21:13:20.006Z,29.00
2019-01-30T21:15:50.558Z,28.70
2019-01-30T21:18:22.404Z,27.40
2019-01-30T21:21:02.890Z,28.00
2019-01-30T21:23:27.945Z,27.90
2019-01-30T21:26:02.060Z,27.70
2019-01-30T21:28:34.089Z,27.60
2019-01-30T21:31:04.684Z,27.40
2019-01-30T21:33:39.677Z,27.40
2019-01-30T21:36:26.976Z,28.00
2019-01-30T21:39:00.372Z,27.90
2019-01-30T21:41:30.937Z,28.20
2019-01-30T21:44:02.779Z,28.30
2019-01-30T21:46:49.080Z,28.50
2019-01-30T21:49:34.998Z,28.80
2019-01-30T21:55:08.916Z,27.30
2019-01-30T21:57:41.855Z,27.90
2019-01-30T22:00:28.305Z,27.10
2019-01-30T22:02:59.094Z,26.80
2019-01-30T22:05:32.600Z,26.90
2019-01-30T22:08:03.101Z,26.70
2019-01-30T22:10:36.489Z,26.50
2019-01-30T22:13:15.055Z,26.30
2019-01-30T22:15:45.276Z,26.10
2019-01-30T22:18:17.437Z,26.20
2019-01-30T22:20:48.933Z,26.60
2019-01-30T22:23:22.119Z,26.70
2019-01-30T22:25:52.549Z,26.60
2019-01-30T22:28:23.050Z,26.20
2019-01-30T22:30:53.624Z,26.40
2019-01-30T22:33:26.522Z,26.80
2019-01-30T22:35:59.175Z,26.90
2019-01-30T22:38:30.936Z,26.70
2019-01-30T22:41:01.362Z,26.10
2019-01-30T22:43:31.966Z,25.60
2019-01-30T22:46:06.678Z,26.00
2019-01-30T22:48:38.312Z,26.40
2019-01-30T22:51:08.829Z,26.20
2019-01-30T22:53:42.360Z,25.80
2019-01-30T22:56:13.696Z,25.00
2019-01-30T22:58:44.118Z,24.70
2019-01-30T23:01:26.071Z,24.80
2019-01-30T23:04:01.835Z,25.20
2019-01-30T23:06:46.871Z,25.50
2019-01-30T23:09:36.469Z,25.40
2019-01-30T23:12:34.427Z,25.00
2019-01-30T23:15:07.558Z,24.60
2019-01-30T23:17:46.565Z,23.90
2019-01-30T23:20:22.762Z,24.20
2019-01-30T23:23:12.938Z,24.20
2019-01-30T23:26:00.035Z,24.40
2019-01-30T23:28:38.854Z,24.30
2019-01-30T23:31:30.581Z,24.50
2019-01-30T23:34:03.792Z,24.40
2019-01-30T23:36:51.119Z,24.50
2019-01-30T23:39:41.182Z,24.20
2019-01-30T23:42:20.480Z,23.80
2019-01-30T23:45:09.820Z,23.70
2019-01-30T23:47:43.256Z,23.70
2019-01-30T23:50:23.908Z,23.80
2019-01-30T23:53:05.824Z,23.60
2019-01-30T23:55:47.885Z,23.50
2019-01-30T23:58:36.041Z,23.50
